createdAt,value
2023-02-11T00:02:15.186Z,37.97
2023-02-11T00:04:41.959Z,39.33
2023-02-11T00:07:08.747Z,40.53
2023-02-11T00:09:35.484Z,38.97
2023-02-11T00:12:02.173Z,40.00
2023-02-11T00:14:28.934Z,37.93
2023-02-11T00:16:55.659Z,37.63
2023-02-11T00:19:22.418Z,38.80
2023-02-11T00:21:49.544Z,39.67
2023-02-11T00:24:16.194Z,39.50
2023-02-11T00:26:42.939Z,40.13
2023-02-11T00:29:10.287Z,38.77
2023-02-11T00:31:37.246Z,38.33
2023-02-11T00:34:04.085Z,40.77
2023-02-11T00:36:31.020Z,38.37
2023-02-11T00:38:58.640Z,40.47
2023-02-11T00:41:26.106Z,36.60
2023-02-11T00:43:53.084Z,38.50
2023-02-11T00:46:20.571Z,39.70
2023-02-11T00:48:47.367Z,40.60
2023-02-11T00:51:14.537Z,39.40
2023-02-11T00:53:42.015Z,39.30
2023-02-11T00:56:09.281Z,39.80
2023-02-11T00:58:36.854Z,39.83
2023-02-11T01:01:04.545Z,39.53
2023-02-11T01:03:31.871Z,38.70
2023-02-11T01:05:58.572Z,38.60
2023-02-11T01:08:25.616Z,39.37
2023-02-11T01:11:05.386Z,39.33
2023-02-11T01:13:35.035Z,39.63
2023-02-11T01:16:01.775Z,40.83
2023-02-11T01:18:29.189Z,40.20
2023-02-11T01:20:55.968Z,38.70
2023-02-11T01:23:22.693Z,40.40
2023-02-11T01:25:50.381Z,42.60
2023-02-11T01:31:11.284Z,38.83
2023-02-11T01:33:38.049Z,39.03
2023-02-11T01:36:06.315Z,40.00
2023-02-11T01:38:33.884Z,38.73
2023-02-11T01:41:03.828Z,38.13
2023-02-11T01:43:39.508Z,38.67
2023-02-11T01:46:37.771Z,40.47
2023-02-11T01:49:11.850Z,38.53
2023-02-11T01:51:43.810Z,38.37
2023-02-11T01:54:31.792Z,37.73
2023-02-11T01:57:18.820Z,39.43
2023-02-11T01:59:51.251Z,40.33
2023-02-11T02:02:23.601Z,39.23
2023-02-11T02:04:57.851Z,39.60
2023-02-11T02:07:52.328Z,42.00
2023-02-11T02:10:22.613Z,38.87
2023-02-11T02:12:49.584Z,39.53
2023-02-11T02:15:30.083Z,40.47
2023-02-11T02:18:02.790Z,42.00
2023-02-11T02:20:38.614Z,38.53
2023-02-11T02:23:19.016Z,43.03
2023-02-11T02:26:14.176Z,40.83
2023-02-11T02:29:14.428Z,41.40
2023-02-11T02:32:32.104Z,42.27
2023-02-11T02:35:12.025Z,42.03
2023-02-11T02:37:44.828Z,40.60
2023-02-11T02:40:45.356Z,43.27
2023-02-11T02:43:13.154Z,43.70
2023-02-11T02:45:39.964Z,44.07
2023-02-11T02:48:06.967Z,40.13
2023-02-11T02:50:37.408Z,43.17
2023-02-11T02:53:09.874Z,43.93
2023-02-11T02:56:08.606Z,43.17
2023-02-11T02:58:54.051Z,42.57
2023-02-11T03:01:47.431Z,44.20
2023-02-11T03:04:23.030Z,45.27
2023-02-11T03:07:01.110Z,46.30
2023-02-11T03:09:34.434Z,44.63
2023-02-11T03:12:03.971Z,44.23
2023-02-11T03:14:32.233Z,46.17
2023-02-11T03:17:03.459Z,43.90
2023-02-11T03:19:37.569Z,46.33
2023-02-11T03:22:09.718Z,45.20
2023-02-11T03:24:38.483Z,45.50
2023-02-11T03:27:16.728Z,48.50
2023-02-11T03:30:05.222Z,48.03
2023-02-11T03:32:52.321Z,44.73
2023-02-11T03:35:29.726Z,44.90
2023-02-11T03:38:05.850Z,44.47
2023-02-11T03:40:37.297Z,47.27
2023-02-11T03:43:17.134Z,44.27
2023-02-11T03:45:46.115Z,46.77
2023-02-11T03:48:34.851Z,44.33
2023-02-11T03:51:03.684Z,46.27
2023-02-11T03:53:30.530Z,44.23
2023-02-11T03:56:00.180Z,45.03
2023-02-11T03:58:26.942Z,44.17
2023-02-11T04:00:53.985Z,47.03
2023-02-11T04:03:20.785Z,43.93
2023-02-11T04:05:48.152Z,45.70
2023-02-11T04:08:15.313Z,46.17
2023-02-11T04:10:42.011Z,44.53
2023-02-11T04:13:08.678Z,43.73
2023-02-11T04:15:35.430Z,44.20
2023-02-11T04:18:03.391Z,42.93
2023-02-11T04:20:30.393Z,44.10
2023-02-11T04:22:57.150Z,42.63
2023-02-11T04:25:23.954Z,43.30
2023-02-11T04:27:50.640Z,42.97
2023-02-11T04:30:17.456Z,43.53
2023-02-11T04:32:44.202Z,42.57
2023-02-11T04:35:10.894Z,43.97
2023-02-11T04:37:37.674Z,44.10
2023-02-11T04:40:04.768Z,42.33
2023-02-11T04:42:31.538Z,41.43
2023-02-11T04:44:58.270Z,43.90
2023-02-11T04:47:25.007Z,42.10
2023-02-11T04:49:51.712Z,41.27
2023-02-11T04:52:18.505Z,40.67
2023-02-11T04:54:45.276Z,41.67
2023-02-11T04:57:11.960Z,40.10
2023-02-11T04:59:38.822Z,41.23
2023-02-11T05:02:05.567Z,39.70
2023-02-11T05:04:32.321Z,40.07
2023-02-11T05:06:59.125Z,38.77
2023-02-11T05:09:25.951Z,36.40
2023-02-11T05:11:53.583Z,37.00
2023-02-11T05:14:20.331Z,36.33
2023-02-11T05:16:47.197Z,37.57
2023-02-11T05:19:14.021Z,36.70
2023-02-11T05:21:53.129Z,34.07
2023-02-11T05:24:27.150Z,37.00
2023-02-11T05:26:54.265Z,37.40
2023-02-11T05:29:20.977Z,34.83
2023-02-11T05:31:47.703Z,35.23
2023-02-11T05:34:14.547Z,36.87
2023-02-11T05:36:41.300Z,34.93
2023-02-11T05:39:07.992Z,35.33
2023-02-11T05:41:34.683Z,34.20
2023-02-11T05:44:01.535Z,34.00
2023-02-11T05:46:28.278Z,34.07
2023-02-11T05:48:56.635Z,33.43
2023-02-11T05:51:25.255Z,33.37
2023-02-11T05:53:52.467Z,32.47
2023-02-11T05:56:19.158Z,32.70
2023-02-11T05:58:45.856Z,33.83
2023-02-11T06:01:12.705Z,31.23
2023-02-11T06:03:39.404Z,32.80
2023-02-11T06:06:12.644Z,34.73
2023-02-11T06:08:39.688Z,34.30
2023-02-11T06:11:06.779Z,33.50
2023-02-11T06:13:33.449Z,33.93
2023-02-11T06:16:01.538Z,34.80
2023-02-11T06:18:29.432Z,33.10
2023-02-11T06:20:56.621Z,34.03
2023-02-11T06:23:23.421Z,32.93
2023-02-11T06:25:51.011Z,32.13
2023-02-11T06:28:18.101Z,32.80
2023-02-11T06:30:45.304Z,31.90
2023-02-11T06:33:12.096Z,33.50
2023-02-11T06:35:39.469Z,33.07
2023-02-11T06:38:06.203Z,32.40
2023-02-11T06:40:33.367Z,32.23
2023-02-11T06:43:00.150Z,32.73
2023-02-11T06:45:26.875Z,33.73
2023-02-11T06:47:53.680Z,35.97
2023-02-11T06:50:20.545Z,32.97
2023-02-11T06:52:47.229Z,35.17
2023-02-11T06:55:14.975Z,34.83
2023-02-11T06:57:41.972Z,32.90
2023-02-11T07:00:09.344Z,33.30
2023-02-11T07:02:39.123Z,35.80
2023-02-11T07:05:10.069Z,33.73
2023-02-11T07:07:37.163Z,34.87
2023-02-11T07:10:04.620Z,33.70
2023-02-11T07:12:31.884Z,34.40
2023-02-11T07:14:58.628Z,36.43
2023-02-11T07:17:25.508Z,36.20
2023-02-11T07:19:52.221Z,36.67
2023-02-11T07:22:18.987Z,36.00
2023-02-11T07:24:45.900Z,35.33
2023-02-11T07:27:12.787Z,35.50
2023-02-11T07:29:39.732Z,36.47
2023-02-11T07:32:06.809Z,33.90
2023-02-11T07:34:33.936Z,36.80
2023-02-11T07:37:00.811Z,38.17
2023-02-11T07:39:27.780Z,34.80
2023-02-11T07:41:54.643Z,34.87
2023-02-11T07:44:21.438Z,37.77
2023-02-11T07:46:49.445Z,34.53
2023-02-11T07:49:16.809Z,35.70
2023-02-11T07:51:43.543Z,36.57
2023-02-11T07:54:11.562Z,36.20
2023-02-11T07:56:38.699Z,35.60
2023-02-11T07:59:05.471Z,35.13
2023-02-11T08:01:32.504Z,34.70
2023-02-11T08:04:01.038Z,35.73
2023-02-11T08:06:33.438Z,36.40
2023-02-11T08:09:06.261Z,36.43
2023-02-11T08:11:33.188Z,35.10
2023-02-11T08:13:59.909Z,35.47
2023-02-11T08:16:37.448Z,35.90
2023-02-11T08:19:10.573Z,36.07
2023-02-11T08:21:37.686Z,38.23
2023-02-11T08:24:04.787Z,36.37
2023-02-11T08:26:34.684Z,36.57
2023-02-11T08:29:05.696Z,35.90
2023-02-11T08:31:38.766Z,39.40
2023-02-11T08:34:06.379Z,36.23
2023-02-11T08:36:36.183Z,37.20
2023-02-11T08:39:18.128Z,35.57
2023-02-11T08:41:48.829Z,36.60
2023-02-11T08:44:16.410Z,35.80
2023-02-11T08:46:43.174Z,36.10
2023-02-11T08:49:09.898Z,35.07
2023-02-11T08:51:37.043Z,38.80
2023-02-11T08:54:04.347Z,37.50
2023-02-11T08:56:33.176Z,36.07
2023-02-11T08:58:59.872Z,38.10
2023-02-11T09:01:30.116Z,37.27
2023-02-11T09:03:58.457Z,36.63
2023-02-11T09:06:26.805Z,38.17
2023-02-11T09:08:55.527Z,36.70
2023-02-11T09:11:28.050Z,36.77
2023-02-11T09:13:54.910Z,36.13
2023-02-11T09:16:26.032Z,36.20
2023-02-11T09:18:53.408Z,37.50
2023-02-11T09:21:20.642Z,38.93
2023-02-11T09:23:48.101Z,39.53
2023-02-11T09:26:19.495Z,43.30
2023-02-11T09:28:47.199Z,40.10
2023-02-11T09:31:17.023Z,40.70
2023-02-11T09:33:48.850Z,39.47
2023-02-11T09:36:38.281Z,38.93
2023-02-11T09:39:08.310Z,38.50
2023-02-11T09:41:42.157Z,37.17
2023-02-11T09:44:28.180Z,37.23
2023-02-11T09:46:58.589Z,35.73
2023-02-11T09:49:40.896Z,39.53
2023-02-11T09:52:42.045Z,38.83
2023-02-11T09:55:20.232Z,39.40
2023-02-11T09:57:46.979Z,36.00
2023-02-11T10:00:52.905Z,40.00
2023-02-11T10:03:54.107Z,40.17
2023-02-11T10:06:42.370Z,38.83
2023-02-11T10:09:34.311Z,40.97
2023-02-11T10:12:18.920Z,40.83
2023-02-11T10:14:48.341Z,42.20
2023-02-11T10:17:24.239Z,39.40
2023-02-11T10:20:18.512Z,41.13
2023-02-11T10:22:57.667Z,40.93
2023-02-11T10:25:30.202Z,41.33
2023-02-11T10:27:59.346Z,41.87
2023-02-11T10:30:38.343Z,39.17
2023-02-11T10:33:30.190Z,41.33
2023-02-11T10:35:56.915Z,42.70
2023-02-11T10:38:23.622Z,43.20
2023-02-11T10:40:50.709Z,42.53
2023-02-11T10:43:21.211Z,41.70
2023-02-11T10:45:51.788Z,39.80
2023-02-11T10:48:42.056Z,40.60
2023-02-11T10:51:16.623Z,41.73
2023-02-11T10:53:43.961Z,43.00
2023-02-11T10:56:27.797Z,44.40
2023-02-11T10:59:22.634Z,43.20
2023-02-11T11:01:51.054Z,41.70
2023-02-11T11:04:33.713Z,42.57
2023-02-11T11:07:18.605Z,41.93
2023-02-11T11:09:50.388Z,41.57
2023-02-11T11:12:36.283Z,42.87
2023-02-11T11:15:21.673Z,42.87
2023-02-11T11:18:21.002Z,41.33
2023-02-11T11:21:07.532Z,39.67
2023-02-11T11:23:38.142Z,38.53
2023-02-11T11:26:11.826Z,40.20
2023-02-11T11:28:52.210Z,39.50
2023-02-11T11:31:29.858Z,38.60
2023-02-11T11:33:59.348Z,34.07
2023-02-11T11:36:38.066Z,35.07
2023-02-11T11:39:22.476Z,36.03
2023-02-11T11:41:55.254Z,35.07
2023-02-11T11:44:32.476Z,34.40
2023-02-11T11:47:11.520Z,33.97
2023-02-11T11:49:52.384Z,35.40
2023-02-11T11:52:45.480Z,31.73
2023-02-11T11:55:19.541Z,32.93
2023-02-11T11:57:46.577Z,30.17
2023-02-11T12:00:42.207Z,29.27
2023-02-11T12:03:27.363Z,33.60
2023-02-11T12:06:15.658Z,31.43
2023-02-11T12:09:09.649Z,32.87
2023-02-11T12:11:56.895Z,31.53
2023-02-11T12:14:53.308Z,31.83
2023-02-11T12:17:47.056Z,29.43
2023-02-11T12:20:26.776Z,31.50
2023-02-11T12:23:20.022Z,31.97
2023-02-11T12:25:51.367Z,31.10
2023-02-11T12:28:36.070Z,30.67
2023-02-11T12:31:28.475Z,30.80
2023-02-11T12:34:19.960Z,29.70
2023-02-11T12:37:08.181Z,30.27
2023-02-11T12:39:56.523Z,32.17
2023-02-11T12:43:20.838Z,31.53
2023-02-11T12:46:00.229Z,31.67
2023-02-11T12:49:10.180Z,32.77
2023-02-11T12:51:52.640Z,32.37
2023-02-11T12:54:43.981Z,34.70
2023-02-11T12:57:32.175Z,33.83
2023-02-11T13:00:24.883Z,34.03
2023-02-11T13:03:07.109Z,34.70
2023-02-11T13:05:51.525Z,37.17
2023-02-11T13:08:33.823Z,34.80
2023-02-11T13:11:17.904Z,36.00
2023-02-11T13:13:57.485Z,33.97
2023-02-11T13:16:35.094Z,33.40
2023-02-11T13:19:13.925Z,32.13
2023-02-11T13:21:56.346Z,33.77
2023-02-11T13:24:28.854Z,35.30
2023-02-11T13:27:01.680Z,33.43
2023-02-11T13:29:43.439Z,32.53
2023-02-11T13:32:14.548Z,32.97
2023-02-11T13:34:44.226Z,33.30
2023-02-11T13:37:26.484Z,32.73
2023-02-11T13:40:03.208Z,33.87
2023-02-11T13:42:32.780Z,33.40
2023-02-11T13:44:59.924Z,34.00
2023-02-11T13:47:31.513Z,33.50
2023-02-11T13:49:59.450Z,34.33
2023-02-11T13:52:30.493Z,33.23
2023-02-11T13:55:03.352Z,33.93
2023-02-11T13:57:35.758Z,31.60
2023-02-11T14:00:24.213Z,33.40
2023-02-11T14:03:29.383Z,34.47
2023-02-11T14:06:26.687Z,33.47
2023-02-11T14:09:17.266Z,31.87
2023-02-11T14:11:48.471Z,32.83
2023-02-11T14:14:36.087Z,33.20
2023-02-11T14:17:09.099Z,32.70
2023-02-11T14:19:38.463Z,31.37
2023-02-11T14:22:06.226Z,32.87
2023-02-11T14:24:32.885Z,34.50
2023-02-11T14:27:07.874Z,33.10
2023-02-11T14:29:37.445Z,32.30
2023-02-11T14:32:32.271Z,31.80
2023-02-11T14:35:09.572Z,34.67
2023-02-11T14:37:50.037Z,33.83
2023-02-11T14:40:41.855Z,32.83
2023-02-11T14:43:20.923Z,35.67
2023-02-11T14:45:55.682Z,33.07
2023-02-11T14:48:29.814Z,34.47
2023-02-11T14:51:02.370Z,34.80
2023-02-11T14:53:31.694Z,36.63
2023-02-11T14:55:58.633Z,35.20
2023-02-11T14:58:25.302Z,36.97
2023-02-11T15:00:58.364Z,32.30
2023-02-11T15:03:27.490Z,33.20
2023-02-11T15:06:05.450Z,34.20
2023-02-11T15:08:34.067Z,33.90
2023-02-11T15:11:02.974Z,33.70
2023-02-11T15:13:31.776Z,33.37
2023-02-11T15:16:05.094Z,36.17
2023-02-11T15:18:43.654Z,31.47
2023-02-11T15:21:10.762Z,34.57
2023-02-11T15:23:38.903Z,32.73
2023-02-11T15:26:14.097Z,31.57
2023-02-11T15:28:48.934Z,31.97
2023-02-11T15:31:19.218Z,31.33
2023-02-11T15:33:46.785Z,33.03
2023-02-11T15:36:15.363Z,33.20
2023-02-11T15:38:42.369Z,31.67
2023-02-11T15:41:38.342Z,33.40
2023-02-11T15:44:05.201Z,33.17
2023-02-11T15:46:40.001Z,32.70
2023-02-11T15:49:08.555Z,30.67
2023-02-11T15:51:37.850Z,33.17
2023-02-11T15:54:27.367Z,32.37
2023-02-11T15:56:59.502Z,33.37
2023-02-11T15:59:30.558Z,31.73
2023-02-11T16:02:05.485Z,32.80
2023-02-11T16:04:32.645Z,33.07
2023-02-11T16:06:59.481Z,31.53
2023-02-11T16:09:36.377Z,35.80
2023-02-11T16:12:24.250Z,31.50
2023-02-11T16:14:51.047Z,30.27
2023-02-11T16:17:28.603Z,31.57
2023-02-11T16:19:55.470Z,32.80
2023-02-11T16:22:28.830Z,32.30
2023-02-11T16:24:58.564Z,29.70
2023-02-11T16:27:41.735Z,31.97
2023-02-11T16:30:35.013Z,30.33
2023-02-11T16:33:02.201Z,31.50
2023-02-11T16:35:29.357Z,31.93
2023-02-11T16:37:56.124Z,30.93
2023-02-11T16:40:25.909Z,34.00
2023-02-11T16:42:53.500Z,33.53
2023-02-11T16:45:20.425Z,34.30
2023-02-11T16:47:47.487Z,33.50
2023-02-11T16:50:25.284Z,34.53
2023-02-11T16:52:52.747Z,32.57
2023-02-11T16:55:21.900Z,33.73
2023-02-11T16:57:49.143Z,35.17
2023-02-11T17:00:16.798Z,34.70
2023-02-11T17:02:43.894Z,34.00
2023-02-11T17:05:23.000Z,35.07
2023-02-11T17:07:50.287Z,34.90
2023-02-11T17:10:20.012Z,34.47
2023-02-11T17:12:48.206Z,33.50
2023-02-11T17:15:14.984Z,34.50
2023-02-11T17:17:41.765Z,35.27
2023-02-11T17:20:11.538Z,33.47
2023-02-11T17:22:38.651Z,33.60
2023-02-11T17:25:06.638Z,33.73
2023-02-11T17:27:34.409Z,32.20
2023-02-11T17:30:01.306Z,33.67
2023-02-11T17:32:28.085Z,33.40
2023-02-11T17:34:54.928Z,33.17
2023-02-11T17:37:21.803Z,33.80
2023-02-11T17:39:50.284Z,33.10
2023-02-11T17:42:19.141Z,36.50
2023-02-11T17:44:46.198Z,34.10
2023-02-11T17:47:13.664Z,33.83
2023-02-11T17:49:40.721Z,32.60
2023-02-11T17:52:07.903Z,30.83
2023-02-11T17:54:34.884Z,32.47
2023-02-11T17:57:01.815Z,31.77
2023-02-11T17:59:31.710Z,32.17
2023-02-11T18:01:58.501Z,32.37
2023-02-11T18:04:25.310Z,33.17
2023-02-11T18:06:53.522Z,30.73
2023-02-11T18:09:20.557Z,30.43
2023-02-11T18:11:48.494Z,31.57
2023-02-11T18:14:15.234Z,30.43
2023-02-11T18:16:44.775Z,29.53
2023-02-11T18:19:12.494Z,30.83
2023-02-11T18:21:39.423Z,29.87
2023-02-11T18:24:07.229Z,31.47
2023-02-11T18:26:34.856Z,30.73
2023-02-11T18:29:01.887Z,31.63
2023-02-11T18:31:30.286Z,32.83
2023-02-11T18:33:57.197Z,31.17
2023-02-11T18:36:24.353Z,30.87
2023-02-11T18:38:52.623Z,30.67
2023-02-11T18:41:20.272Z,37.27
2023-02-11T18:43:47.065Z,40.60
2023-02-11T18:46:15.656Z,37.20
2023-02-11T18:48:44.801Z,41.77
2023-02-11T18:51:14.719Z,38.53
2023-02-11T18:53:42.128Z,32.37
2023-02-11T18:56:11.596Z,31.20
2023-02-11T18:58:38.687Z,31.67
2023-02-11T19:01:13.170Z,29.23
2023-02-11T19:03:39.955Z,32.03
2023-02-11T19:06:07.227Z,30.10
2023-02-11T19:08:34.067Z,30.10
2023-02-11T19:11:00.865Z,30.47
2023-02-11T19:13:29.202Z,31.17
2023-02-11T19:15:56.050Z,30.10
2023-02-11T19:18:23.136Z,31.67
2023-02-11T19:20:49.896Z,29.47
2023-02-11T19:23:16.737Z,28.97
2023-02-11T19:25:47.789Z,28.97
2023-02-11T19:28:15.569Z,31.90
2023-02-11T19:30:42.648Z,29.47
2023-02-11T19:33:10.337Z,31.87
2023-02-11T19:35:37.232Z,30.37
2023-02-11T19:38:05.152Z,30.67
2023-02-11T19:40:32.758Z,32.90
2023-02-11T19:42:59.684Z,32.60
2023-02-11T19:45:26.981Z,32.00
2023-02-11T19:47:57.357Z,31.43
2023-02-11T19:50:24.734Z,31.50
2023-02-11T19:52:51.524Z,30.80
2023-02-11T19:55:18.658Z,31.73
2023-02-11T19:57:45.378Z,30.67
2023-02-11T20:00:12.782Z,30.23
2023-02-11T20:02:40.260Z,31.50
2023-02-11T20:05:07.529Z,32.90
2023-02-11T20:07:34.878Z,33.40
2023-02-11T20:10:01.683Z,32.47
2023-02-11T20:12:28.665Z,32.80
2023-02-11T20:14:55.350Z,34.63
2023-02-11T20:17:22.166Z,31.03
2023-02-11T20:19:48.911Z,31.60
2023-02-11T20:22:15.673Z,31.90
2023-02-11T20:24:42.391Z,33.00
2023-02-11T20:27:11.455Z,31.20
2023-02-11T20:29:39.284Z,31.93
2023-02-11T20:32:07.332Z,31.70
2023-02-11T20:34:35.452Z,33.40
2023-02-11T20:37:05.016Z,31.37
2023-02-11T20:39:31.895Z,32.50
2023-02-11T20:41:58.713Z,32.43
2023-02-11T20:44:25.512Z,31.03
2023-02-11T20:46:53.978Z,31.47
2023-02-11T20:49:23.240Z,31.00
2023-02-11T20:51:51.476Z,30.60
2023-02-11T20:54:20.475Z,32.27
2023-02-11T20:56:48.510Z,30.10
2023-02-11T20:59:16.564Z,32.20
2023-02-11T21:01:45.923Z,32.57
2023-02-11T21:04:18.880Z,31.70
2023-02-11T21:06:48.320Z,32.13
2023-02-11T21:09:19.819Z,30.90
2023-02-11T21:11:47.482Z,29.77
2023-02-11T21:14:14.500Z,30.27
2023-02-11T21:16:41.720Z,30.53
2023-02-11T21:19:08.593Z,29.13
2023-02-11T21:21:37.446Z,30.97
2023-02-11T21:24:05.615Z,30.23
2023-02-11T21:26:32.882Z,30.13
2023-02-11T21:28:59.593Z,29.07
2023-02-11T21:31:29.066Z,30.00
2023-02-11T21:33:56.665Z,28.53
2023-02-11T21:36:24.285Z,27.90
2023-02-11T21:38:51.442Z,26.00
2023-02-11T21:41:19.937Z,25.00
2023-02-11T21:43:46.738Z,23.37
2023-02-11T21:46:15.750Z,25.10
2023-02-11T21:48:43.016Z,22.30
2023-02-11T21:51:16.882Z,22.47
2023-02-11T21:53:44.113Z,22.77
2023-02-11T21:56:13.618Z,21.00
2023-02-11T21:58:40.641Z,19.23
2023-02-11T22:01:18.161Z,19.17
2023-02-11T22:03:46.118Z,19.83
2023-02-11T22:06:15.308Z,18.37
2023-02-11T22:08:42.227Z,17.83
2023-02-11T22:11:11.280Z,19.20
2023-02-11T22:13:38.079Z,17.20
2023-02-11T22:16:07.813Z,16.17
2023-02-11T22:18:34.895Z,17.00
2023-02-11T22:21:10.518Z,15.70
2023-02-11T22:23:38.566Z,16.30
2023-02-11T22:26:08.183Z,15.77
2023-02-11T22:28:35.582Z,16.23
2023-02-11T22:31:02.535Z,15.67
2023-02-11T22:33:29.432Z,17.73
2023-02-11T22:36:00.449Z,15.50
2023-02-11T22:38:28.857Z,16.60
2023-02-11T22:40:55.832Z,15.20
2023-02-11T22:43:22.738Z,15.43
2023-02-11T22:45:50.487Z,14.67
2023-02-11T22:48:17.607Z,15.47
2023-02-11T22:50:44.426Z,14.30
2023-02-11T22:53:11.187Z,15.17
2023-02-11T22:55:39.020Z,14.87
2023-02-11T22:58:06.439Z,13.83
2023-02-11T23:00:38.158Z,13.43
2023-02-11T23:03:06.381Z,13.83
2023-02-11T23:05:40.572Z,13.33
2023-02-11T23:08:12.060Z,14.30
2023-02-11T23:10:39.981Z,12.87
2023-02-11T23:13:07.500Z,12.33
2023-02-11T23:15:34.340Z,12.97
2023-02-11T23:18:01.150Z,13.10
2023-02-11T23:20:27.898Z,13.37
2023-02-11T23:22:54.692Z,12.80
2023-02-11T23:25:21.429Z,12.10
2023-02-11T23:27:48.181Z,11.53
2023-02-11T23:30:15.047Z,11.27
2023-02-11T23:32:41.832Z,12.03
2023-02-11T23:35:08.555Z,11.30
2023-02-11T23:37:35.331Z,12.43
2023-02-11T23:40:02.031Z,11.73
2023-02-11T23:42:29.228Z,11.83
2023-02-11T23:44:55.969Z,11.90
2023-02-11T23:47:22.735Z,12.00
2023-02-11T23:49:49.472Z,11.60
2023-02-11T23:52:16.470Z,11.83
2023-02-11T23:54:43.409Z,12.50
2023-02-11T23:57:10.173Z,11.83
2023-02-11T23:59:36.984Z,14.37
